map of HVN home
HVN - Airport
Location
City:  New Haven, Connecticut, United States
Name:Tweed-New Haven Airport
ICAO:KHVN
IATA:HVN
FAA LID:HVN

Details
Type:Airport (Part 139 Class I)
Use:Public/Civil, International (customs landing rights)
Latitude:4115'50"N (41.263750)
Longitude:7253'12"W (-72.886805)
Datum:WGS 1984
Elevation:12 ft (4 m)
Variation:13.57W (WMM2015 magnetic declination)
0.04 annual change
Runways:2
Longest:5600 × 150 ft (1707 × 45.5 m), paved

Time
Time Zone:UTC-5 (DST-4)
Local Time:

Weather
METAR:KHVN 150553Z AUTO 29005KT 10SM CLR M07/M16 A3006 RMK AO2 SLP179 T10671156 11028 21067 50001

Related Locations
Nearby:
Farthest:MQZ: 11767 mi / 18937 km
Margaret River [Margaret River Airport], WA, AU

Find:

   beyond  
but within

Other Information
Maps:
Delays:
NOTAMs:
Links:
Sources:

  
flag of United States
flag of Connecticut
  

Airport Diagram

Airport diagram for HVN

Airport diagram PDF

Sectional Chart

Flight Planning
at skyvector.com

Satellite Image

Google Maps Satellite view

 

Copyright © 2004-2017 Karl L. Swartz. All rights reserved.
The Great Circle Mapper name and logo are trademarks of the Great Circle Mapper.
All other trademarks mentioned herein belong to their respective owners.
Please see credits for attibutions and further copyright information.

  Follow gcmap on Facebook Follow gcmap on Twitter Follow gcmap on Google+ GCmap on LinkedIn

hCard Microformat

Geo Microformat